Time;durP1;ratioP1;P1;durP2;ratioP2;P2;SDS_P1;SDS_P2;PMS_P1;PMS_P2;Temp;Humidity;BMP_temperature;BMP_pressure;BME280_temperature;BME280_humidity;BME280_pressure;Samples;Min_cycle;Max_cycle;Signal;HPM_P1;HPM_P2
2022/03/25 00:00:44;;;;;;;1.45;1.20;;;;;;;20.39;36.93;100542.00;4196124;28;20040;-65
2022/03/25 00:02:46;;;;;;;1.75;1.50;;;;;;;20.39;37.16;100525.34;4196391;28;20040;-65
2022/03/25 00:04:47;;;;;;;1.75;1.10;;;;;;;20.38;36.88;100520.91;4198583;28;20083;-64
2022/03/25 00:06:49;;;;;;;2.00;1.60;;;;;;;20.39;37.15;100555.91;4200975;28;20041;-65
2022/03/25 00:08:50;;;;;;;2.60;1.20;;;;;;;20.36;37.02;100570.38;4200375;28;20029;-65
2022/03/25 00:10:51;;;;;;;2.33;1.40;;;;;;;20.38;37.40;100566.19;4199862;28;20048;-64
2022/03/25 00:12:53;;;;;;;2.33;1.42;;;;;;;20.37;37.27;100563.72;4197349;28;20442;-65
2022/03/25 00:14:54;;;;;;;1.83;1.30;;;;;;;20.37;36.84;100553.41;4199742;28;20037;-65
2022/03/25 00:16:55;;;;;;;1.98;1.50;;;;;;;20.37;37.29;100558.16;4199579;28;20081;-65
2022/03/25 00:19:03;;;;;;;1.10;1.00;;;;;;;20.37;37.30;100536.75;4200180;28;20298;-65
2022/03/25 00:21:05;;;;;;;2.33;1.20;;;;;;;20.34;37.38;100542.88;4199451;28;20074;-65
2022/03/25 00:23:06;;;;;;;2.15;1.33;;;;;;;20.37;37.06;100547.03;4199500;28;20098;-64
2022/03/25 00:25:13;;;;;;;1.70;1.33;;;;;;;20.37;37.29;100569.25;4199539;28;20545;-65
2022/03/25 00:27:17;;;;;;;1.90;1.17;;;;;;;20.36;37.42;100590.66;4199461;28;20102;-64
2022/03/25 00:29:19;;;;;;;8.02;1.45;;;;;;;20.36;36.88;100589.84;4199545;28;20040;-64
2022/03/25 00:31:23;;;;;;;1.52;1.20;;;;;;;20.33;37.21;100584.84;4198836;28;20095;-64
2022/03/25 00:33:24;;;;;;;2.38;1.60;;;;;;;20.36;37.20;100589.84;4199610;28;20443;-65
2022/03/25 00:35:26;;;;;;;1.45;1.30;;;;;;;20.36;37.13;100589.84;4199560;28;20045;-64
2022/03/25 00:37:27;;;;;;;3.13;1.35;;;;;;;20.35;37.34;100582.63;4199438;28;20044;-64
2022/03/25 00:39:31;;;;;;;2.97;1.27;;;;;;;20.34;37.31;100580.94;4199522;28;20040;-64
2022/03/25 00:41:33;;;;;;;2.47;1.45;;;;;;;20.36;37.11;100595.41;4189665;28;20048;-64
2022/03/25 00:43:37;;;;;;;1.63;1.40;;;;;;;20.34;36.97;100604.00;4184755;28;20075;-65
2022/03/25 00:45:41;;;;;;;2.85;1.35;;;;;;;20.36;37.14;100612.06;4197771;28;20097;-65
2022/03/25 00:47:43;;;;;;;1.70;1.00;;;;;;;20.35;36.93;100621.53;4199559;28;20032;-65
2022/03/25 00:49:47;;;;;;;2.05;1.30;;;;;;;20.34;37.26;100619.84;4199293;28;20415;-64
2022/03/25 00:51:51;;;;;;;2.08;1.30;;;;;;;20.36;37.21;100596.22;4197346;28;20055;-65
2022/03/25 00:53:55;;;;;;;2.00;1.30;;;;;;;20.36;36.88;100562.88;4196467;28;20446;-65
2022/03/25 00:55:56;;;;;;;1.58;1.05;;;;;;;20.34;37.07;100583.72;4199397;28;20036;-65
2022/03/25 00:58:01;;;;;;;1.52;1.13;;;;;;;20.33;37.24;100609.84;4213400;28;20471;-65
2022/03/25 01:00:03;;;;;;;1.90;1.42;;;;;;;20.36;37.22;100628.75;4207234;28;20043;-66
2022/03/25 01:02:08;;;;;;;1.52;1.40;;;;;;;20.36;37.22;100612.06;4209469;28;20047;-65
2022/03/25 01:04:09;;;;;;;3.25;1.38;;;;;;;20.37;36.96;100635.97;4200057;28;20173;-65
2022/03/25 01:06:11;;;;;;;2.42;1.50;;;;;;;20.37;37.28;100630.41;4212254;28;20525;-64
2022/03/25 01:08:14;;;;;;;4.63;2.35;;;;;;;20.39;37.24;100617.91;4203434;28;20048;-66
2022/03/25 01:10:16;;;;;;;9.15;2.50;;;;;;;20.40;37.20;100635.41;4200594;28;20044;-66
2022/03/25 01:12:19;;;;;;;8.05;3.42;;;;;;;20.40;37.45;100590.94;4200833;28;20040;-66
2022/03/25 01:14:24;;;;;;;11.40;5.07;;;;;;;20.39;37.33;100604.00;4192989;28;20048;-67
2022/03/25 01:16:28;;;;;;;5.35;3.95;;;;;;;20.41;37.37;100631.50;4198136;28;20105;-66
2022/03/25 01:18:32;;;;;;;11.07;4.07;;;;;;;20.44;37.50;100639.28;4202502;28;20094;-67
2022/03/25 01:20:33;;;;;;;10.75;3.58;;;;;;;20.42;37.27;100644.28;4197303;28;20044;-67
2022/03/25 01:22:35;;;;;;;9.18;5.55;;;;;;;20.43;37.29;100655.09;4208731;28;20113;-67
2022/03/25 01:24:36;;;;;;;14.70;8.18;;;;;;;20.44;37.35;100654.00;4213609;28;20090;-67
2022/03/25 01:26:39;;;;;;;23.15;10.43;;;;;;;20.41;37.32;100642.63;4199060;28;20090;-66
2022/03/25 01:28:41;;;;;;;20.80;12.45;;;;;;;20.45;37.28;100632.59;4206330;28;20040;-65
2022/03/25 01:30:43;;;;;;;16.48;12.13;;;;;;;20.43;37.22;100630.09;4209847;28;20044;-64
2022/03/25 01:32:44;;;;;;;22.00;13.23;;;;;;;20.46;37.23;100628.69;4204673;28;20525;-65
2022/03/25 01:34:49;;;;;;;19.95;13.57;;;;;;;20.47;37.07;100624.78;4212721;28;20460;-67
2022/03/25 01:36:50;;;;;;;27.70;16.02;;;;;;;20.47;37.37;100617.31;4205315;28;20044;-65
2022/03/25 01:38:51;;;;;;;24.60;17.50;;;;;;;20.49;37.26;100605.94;4195989;28;20036;-65
2022/03/25 01:40:53;;;;;;;26.23;15.55;;;;;;;20.49;37.41;100589.25;4212352;28;20540;-65
2022/03/25 01:42:54;;;;;;;23.60;17.73;;;;;;;20.50;37.15;100557.56;4205937;28;20097;-65
2022/03/25 01:44:56;;;;;;;21.73;15.85;;;;;;;20.51;37.51;100536.97;4208350;28;20101;-65
2022/03/25 01:46:59;;;;;;;24.33;17.30;;;;;;;20.51;37.27;100548.09;4208434;28;20060;-65
2022/03/25 01:49:05;;;;;;;28.70;16.90;;;;;;;20.51;37.29;100557.25;4207364;28;20048;-65
2022/03/25 01:51:10;;;;;;;25.42;18.13;;;;;;;20.52;37.60;100594.22;4198631;28;20048;-65
2022/03/25 01:53:29;;;;;;;22.40;16.60;;;;;;;20.53;37.40;100595.91;4204098;28;20101;-65
2022/03/25 01:55:38;;;;;;;21.38;17.58;;;;;;;20.54;36.97;100586.44;4204895;28;20040;-65
2022/03/25 01:57:39;;;;;;;44.88;17.95;;;;;;;20.47;37.75;100558.09;4198246;28;20097;-65
2022/03/25 01:59:40;;;;;;;28.63;17.20;;;;;;;20.55;37.25;100571.41;4209026;28;20048;-65
2022/03/25 02:01:42;;;;;;;27.55;17.05;;;;;;;20.55;37.64;100588.91;4173667;28;20108;-65
2022/03/25 02:03:44;;;;;;;21.10;16.25;;;;;;;20.55;37.77;100574.19;4191274;28;20040;-66
2022/03/25 02:05:47;;;;;;;23.83;15.70;;;;;;;20.58;37.48;100534.72;4197302;28;20063;-66
2022/03/25 02:07:49;;;;;;;23.13;15.90;;;;;;;20.58;37.50;100520.81;4178845;28;20114;-67
2022/03/25 02:09:50;;;;;;;22.70;15.82;;;;;;;20.54;37.56;100526.13;4196399;28;20453;-67
2022/03/25 02:11:51;;;;;;;23.05;14.90;;;;;;;20.57;37.62;100527.47;4197952;28;20052;-67
2022/03/25 02:13:53;;;;;;;26.23;15.13;;;;;;;20.58;37.70;100526.38;4198442;28;20081;-67
2022/03/25 02:15:55;;;;;;;23.48;15.00;;;;;;;20.60;37.52;100523.28;4180712;28;20103;-67
2022/03/25 02:17:57;;;;;;;30.45;15.02;;;;;;;20.54;37.80;100514.16;4185535;28;20036;-68
2022/03/25 02:19:58;;;;;;;23.65;14.60;;;;;;;20.60;37.63;100524.13;4195966;28;20437;-66
2022/03/25 02:21:59;;;;;;;22.02;14.20;;;;;;;20.59;37.64;100516.91;4197697;28;20101;-66
2022/03/25 02:24:01;;;;;;;26.58;13.93;;;;;;;20.62;37.76;100504.38;4198054;28;20086;-66
2022/03/25 02:26:05;;;;;;;22.98;13.40;;;;;;;20.61;37.58;100503.53;4197937;28;20426;-66
2022/03/25 02:28:07;;;;;;;21.93;12.43;;;;;;;20.63;38.00;100490.19;4198076;28;20025;-66
2022/03/25 02:30:12;;;;;;;18.65;12.25;;;;;;;20.60;37.67;100485.19;4198984;28;20330;-67
2022/03/25 02:32:13;;;;;;;19.13;12.68;;;;;;;20.63;37.83;100495.75;4179900;28;20112;-67
2022/03/25 02:34:15;;;;;;;20.58;12.57;;;;;;;20.63;37.79;100495.75;4200235;28;20040;-66
2022/03/25 02:36:16;;;;;;;17.92;11.10;;;;;;;20.63;37.98;100495.75;4201537;28;20165;-65
2022/03/25 02:38:23;;;;;;;17.13;11.65;;;;;;;20.63;37.79;100492.16;4196613;28;20048;-66
2022/03/25 02:40:24;;;;;;;15.32;11.07;;;;;;;20.64;38.03;100502.97;4198309;28;20434;-66
2022/03/25 02:42:31;;;;;;;19.73;10.73;;;;;;;20.64;37.76;100504.91;4196615;28;20419;-66
2022/03/25 02:44:32;;;;;;;16.50;10.80;;;;;;;20.65;37.98;100514.91;4197340;28;20044;-65
2022/03/25 02:46:33;;;;;;;16.33;10.52;;;;;;;20.66;37.70;100505.44;4197195;28;20381;-66
2022/03/25 02:48:35;;;;;;;15.30;9.25;;;;;;;20.55;38.06;100449.09;4168260;28;20479;-66
2022/03/25 02:50:36;;;;;;;19.30;9.55;;;;;;;20.61;37.61;100430.44;4194008;28;20029;-67
2022/03/25 02:52:38;;;;;;;16.27;10.13;;;;;;;20.67;37.70;100452.34;4197482;28;20086;-67
2022/03/25 02:54:39;;;;;;;15.73;8.73;;;;;;;20.66;37.82;100445.09;4196793;28;20041;-66
2022/03/25 02:56:41;;;;;;;17.35;8.68;;;;;;;20.68;37.70;100440.09;4197693;28;20081;-69
2022/03/25 02:58:42;;;;;;;14.23;8.85;;;;;;;20.67;38.05;100446.78;4197190;28;20037;-65
2022/03/25 03:00:43;;;;;;;12.35;7.70;;;;;;;20.67;38.05;100460.69;4197546;28;20032;-65
2022/03/25 03:02:45;;;;;;;11.07;7.80;;;;;;;20.68;37.95;100458.75;4196607;28;20457;-65
2022/03/25 03:04:49;;;;;;;15.10;8.07;;;;;;;20.61;37.72;100447.09;4197221;28;20106;-66
2022/03/25 03:06:51;;;;;;;21.05;8.35;;;;;;;20.68;37.88;100467.09;4197677;28;20090;-66
2022/03/25 03:08:52;;;;;;;8.80;6.97;;;;;;;20.69;37.76;100472.34;4196736;28;20040;-66
2022/03/25 03:10:54;;;;;;;11.65;7.13;;;;;;;20.71;37.86;100439.53;4196763;28;20373;-66
2022/03/25 03:13:05;;;;;;;12.65;7.18;;;;;;;20.72;38.10;100420.91;4197319;28;20095;-65
2022/03/25 03:15:07;;;;;;;11.15;6.43;;;;;;;20.71;38.12;100414.50;4194937;28;20036;-66
2022/03/25 03:17:10;;;;;;;11.00;7.03;;;;;;;20.71;38.02;100411.72;4196732;28;20092;-65
2022/03/25 03:19:12;;;;;;;10.32;6.53;;;;;;;20.72;37.91;100430.06;4197813;28;20028;-66
2022/03/25 03:21:14;;;;;;;8.57;6.28;;;;;;;20.72;37.86;100426.47;4197035;28;20036;-65
2022/03/25 03:23:15;;;;;;;9.43;6.88;;;;;;;20.73;37.96;100414.22;4196853;28;20048;-66
2022/03/25 03:25:20;;;;;;;11.88;5.95;;;;;;;20.72;37.83;100430.06;4185517;28;20082;-67
2022/03/25 03:27:21;;;;;;;12.57;6.05;;;;;;;20.73;38.13;100417.00;4205446;28;20048;-66
2022/03/25 03:29:23;;;;;;;9.73;5.53;;;;;;;20.74;38.29;100413.06;4200888;28;20044;-67
2022/03/25 03:31:24;;;;;;;11.93;5.97;;;;;;;20.74;38.21;100413.91;4196933;28;20060;-65
2022/03/25 03:33:26;;;;;;;9.82;5.50;;;;;;;20.73;38.17;100417.81;4195967;28;20106;-66
2022/03/25 03:35:28;;;;;;;6.72;4.60;;;;;;;20.75;38.29;100425.84;4197775;28;20402;-66
2022/03/25 03:37:29;;;;;;;9.23;5.22;;;;;;;20.73;38.16;100422.56;4164712;28;20088;-67
2022/03/25 03:39:31;;;;;;;6.15;4.65;;;;;;;20.75;37.91;100432.25;4209627;28;20033;-67
2022/03/25 03:41:35;;;;;;;10.02;4.75;;;;;;;20.75;38.18;100436.97;4199895;28;20443;-66
2022/03/25 03:43:39;;;;;;;6.82;4.43;;;;;;;20.76;38.04;100460.91;4200287;28;20106;-66
2022/03/25 03:45:40;;;;;;;9.87;4.73;;;;;;;20.76;37.96;100478.41;4200543;28;20086;-66
2022/03/25 03:47:42;;;;;;;9.27;3.78;;;;;;;20.77;37.81;100463.38;4200527;28;20677;-66
2022/03/25 03:49:44;;;;;;;8.18;4.20;;;;;;;20.77;38.19;100441.13;4199977;28;20476;-67
2022/03/25 03:51:46;;;;;;;10.48;4.13;;;;;;;20.75;38.11;100423.91;4199556;28;20033;-67
2022/03/25 03:53:50;;;;;;;5.65;3.90;;;;;;;20.77;37.89;100402.22;4199970;28;20549;-67
2022/03/25 03:55:54;;;;;;;6.38;3.75;;;;;;;20.78;37.97;100391.91;4200639;28;20028;-66
2022/03/25 03:57:56;;;;;;;7.60;3.78;;;;;;;20.79;37.83;100399.94;4199946;28;20102;-66
2022/03/25 03:59:58;;;;;;;8.27;4.03;;;;;;;20.77;38.16;100398.59;4199346;28;20028;-66
2022/03/25 04:01:59;;;;;;;6.93;4.28;;;;;;;20.79;37.78;100404.69;4199639;28;20041;-66
2022/03/25 04:04:03;;;;;;;6.78;3.20;;;;;;;20.78;38.21;100401.06;4199908;28;20476;-66
2022/03/25 04:06:05;;;;;;;5.00;3.28;;;;;;;20.78;38.21;100409.41;4216713;28;20372;-66
2022/03/25 04:08:08;;;;;;;7.30;3.00;;;;;;;20.70;38.45;100418.38;4204666;28;20036;-66
2022/03/25 04:10:16;;;;;;;8.20;3.63;;;;;;;20.78;38.16;100442.78;4210109;28;20317;-67
2022/03/25 04:12:17;;;;;;;5.32;3.00;;;;;;;20.80;38.25;100462.81;4199531;28;20040;-66
2022/03/25 04:14:19;;;;;;;8.70;3.22;;;;;;;20.79;37.95;100477.81;4200045;28;20040;-66
2022/03/25 04:16:23;;;;;;;6.47;3.45;;;;;;;20.80;38.40;100473.94;4199958;28;20048;-66
2022/03/25 04:18:25;;;;;;;5.75;2.72;;;;;;;20.73;38.09;100478.97;4200215;28;20098;-66
2022/03/25 04:20:27;;;;;;;5.40;2.60;;;;;;;20.73;38.07;100480.94;4200495;28;20028;-66
2022/03/25 04:22:28;;;;;;;7.28;3.15;;;;;;;20.81;38.43;100502.56;4199862;28;20095;-67
2022/03/25 04:24:30;;;;;;;6.15;3.08;;;;;;;20.81;38.19;100492.28;4199638;28;20102;-67
2022/03/25 04:26:32;;;;;;;5.90;2.55;;;;;;;20.82;38.55;100515.34;4200284;28;20086;-67
2022/03/25 04:28:33;;;;;;;4.97;2.25;;;;;;;20.83;38.48;100543.97;4199352;28;20054;-66
2022/03/25 04:30:40;;;;;;;4.43;2.70;;;;;;;20.83;38.22;100575.41;4199380;28;20537;-67
2022/03/25 04:32:41;;;;;;;5.53;2.97;;;;;;;20.78;38.34;100581.81;4198975;28;20049;-67
2022/03/25 04:34:43;;;;;;;3.78;2.35;;;;;;;20.83;38.02;100582.91;4185492;28;20662;-66
2022/03/25 04:36:44;;;;;;;4.53;2.70;;;;;;;20.83;38.45;100594.88;4205218;28;20036;-67
2022/03/25 04:38:46;;;;;;;5.28;2.95;;;;;;;20.84;38.37;100595.69;4200000;28;20041;-65
2022/03/25 04:40:47;;;;;;;5.03;2.60;;;;;;;20.80;38.64;100579.59;4199902;28;20040;-66
2022/03/25 04:42:51;;;;;;;4.88;2.42;;;;;;;20.80;38.62;100574.03;4199698;28;20040;-65
2022/03/25 04:44:53;;;;;;;6.85;2.47;;;;;;;20.85;38.71;100558.41;4200008;28;20102;-66
2022/03/25 04:46:57;;;;;;;5.15;2.28;;;;;;;20.84;38.74;100551.19;4198782;28;20040;-66
2022/03/25 04:48:58;;;;;;;4.28;2.42;;;;;;;20.85;38.75;100558.41;4199936;28;20040;-66
2022/03/25 04:51:00;;;;;;;5.65;2.42;;;;;;;20.85;38.95;100563.97;4198838;28;20032;-66
2022/03/25 04:53:01;;;;;;;4.90;2.72;;;;;;;20.85;38.66;100575.09;4200531;28;20094;-66
2022/03/25 04:55:03;;;;;;;5.35;2.53;;;;;;;20.85;38.46;100572.31;4203735;28;20048;-66
2022/03/25 04:57:04;;;;;;;3.75;2.03;;;;;;;20.85;38.96;100562.06;4199455;28;20545;-66
2022/03/25 04:59:06;;;;;;;5.07;2.55;;;;;;;20.85;38.59;100555.63;4199456;28;20044;-67
2022/03/25 05:01:07;;;;;;;5.93;2.55;;;;;;;20.76;39.08;100544.31;4195655;28;20032;-66
2022/03/25 05:03:08;;;;;;;8.35;2.75;;;;;;;20.86;39.33;100547.03;4198887;28;20036;-66
2022/03/25 05:05:10;;;;;;;7.43;3.00;;;;;;;20.85;39.24;100548.16;4201106;28;20048;-65
2022/03/25 05:07:20;;;;;;;8.85;2.83;;;;;;;20.84;38.48;100545.63;4204160;28;20040;-65
2022/03/25 05:09:21;;;;;;;6.88;2.75;;;;;;;20.86;39.51;100551.75;4204689;28;20036;-66
2022/03/25 05:11:28;;;;;;;7.00;2.50;;;;;;;20.84;39.47;100540.06;4186812;28;20041;-65
2022/03/25 05:13:30;;;;;;;5.32;2.72;;;;;;;20.87;39.58;100529.19;4203614;28;20044;-65
2022/03/25 05:15:31;;;;;;;6.05;2.53;;;;;;;20.86;39.55;100515.59;4202918;28;20055;-65
2022/03/25 05:17:33;;;;;;;4.65;2.30;;;;;;;20.85;39.75;100497.22;4203462;28;20044;-66
2022/03/25 05:19:34;;;;;;;6.05;2.45;;;;;;;20.87;39.60;100500.56;4206703;28;20041;-65
2022/03/25 05:21:37;;;;;;;6.00;2.60;;;;;;;20.86;39.51;100483.06;4205176;28;20044;-65
2022/03/25 05:23:38;;;;;;;4.53;2.20;;;;;;;20.86;39.45;100493.34;4204954;28;20090;-67
2022/03/25 05:25:40;;;;;;;5.75;2.55;;;;;;;20.87;39.49;100483.88;4201415;28;20040;-65
2022/03/25 05:27:53;;;;;;;4.95;2.13;;;;;;;20.87;39.54;100484.72;4200723;28;20044;-67
2022/03/25 05:29:54;;;;;;;8.05;2.67;;;;;;;20.87;39.47;100479.16;4200213;28;20032;-66
2022/03/25 05:31:55;;;;;;;3.97;1.83;;;;;;;20.87;39.70;100472.75;4200223;28;20044;-67
2022/03/25 05:33:57;;;;;;;4.05;1.95;;;;;;;20.87;39.68;100469.97;4201706;28;20036;-65
2022/03/25 05:36:01;;;;;;;6.70;2.55;;;;;;;20.87;39.26;100467.19;4212947;28;20032;-66
2022/03/25 05:38:03;;;;;;;6.68;1.88;;;;;;;20.86;39.51;100471.09;4217997;28;20414;-66
2022/03/25 05:40:07;;;;;;;3.83;2.10;;;;;;;20.88;39.58;100479.97;4217731;28;20425;-65
2022/03/25 05:42:09;;;;;;;5.68;2.20;;;;;;;20.87;39.65;100483.88;4181931;28;20178;-66
2022/03/25 05:44:11;;;;;;;4.45;1.73;;;;;;;20.88;39.61;100485.53;4183372;28;20083;-66
2022/03/25 05:46:13;;;;;;;5.68;2.05;;;;;;;20.87;39.50;100481.09;4183608;28;20049;-66
2022/03/25 05:48:15;;;;;;;3.47;1.73;;;;;;;20.85;39.44;100469.41;4195015;28;20040;-66
2022/03/25 05:50:17;;;;;;;4.43;2.53;;;;;;;20.87;39.59;100472.75;4199450;28;20094;-65
2022/03/25 05:52:19;;;;;;;3.50;2.00;;;;;;;20.88;39.51;100472.44;4180869;28;20049;-65
2022/03/25 05:54:23;;;;;;;3.88;1.65;;;;;;;20.88;39.10;100471.63;4199004;28;20045;-65
2022/03/25 05:56:24;;;;;;;5.03;2.22;;;;;;;20.86;39.24;100471.09;4199192;28;20094;-65
2022/03/25 05:58:26;;;;;;;4.05;1.42;;;;;;;20.88;39.43;100485.53;4198981;28;20094;-65
2022/03/25 06:00:28;;;;;;;3.63;1.90;;;;;;;20.88;39.14;100485.53;4191975;28;20056;-66
2022/03/25 06:02:29;;;;;;;3.40;1.88;;;;;;;20.87;39.01;100479.16;4198515;28;20048;-66
2022/03/25 06:04:34;;;;;;;3.15;1.48;;;;;;;20.88;39.26;100491.91;4199391;28;20062;-67
2022/03/25 06:06:35;;;;;;;2.47;1.50;;;;;;;20.85;38.91;100502.78;4210928;28;20045;-65
2022/03/25 06:08:38;;;;;;;4.93;1.75;;;;;;;20.87;38.92;100500.56;4210459;28;20032;-67
2022/03/25 06:10:39;;;;;;;4.53;1.90;;;;;;;20.88;38.96;100491.09;4214695;28;20025;-66
2022/03/25 06:12:41;;;;;;;4.22;1.75;;;;;;;20.88;39.34;100502.22;4213116;28;20090;-65
2022/03/25 06:14:42;;;;;;;3.42;1.60;;;;;;;20.88;38.97;100502.22;4214089;28;20105;-66
2022/03/25 06:16:44;;;;;;;3.03;1.35;;;;;;;20.88;38.98;100488.31;4213264;28;20116;-66
2022/03/25 06:18:46;;;;;;;2.67;1.30;;;;;;;20.88;39.04;100485.53;4210039;28;20036;-66
2022/03/25 06:20:48;;;;;;;3.92;1.40;;;;;;;20.87;39.19;100489.44;4198780;28;20101;-65
2022/03/25 06:22:52;;;;;;;5.72;1.58;;;;;;;20.86;39.08;100488.63;4207575;28;20093;-65
2022/03/25 06:24:54;;;;;;;2.45;1.30;;;;;;;20.88;38.84;100491.09;4199439;28;20427;-66
2022/03/25 06:26:55;;;;;;;2.60;1.40;;;;;;;20.87;38.93;100489.44;4198324;28;20066;-66
2022/03/25 06:28:56;;;;;;;4.00;1.42;;;;;;;20.88;39.21;100491.09;4198797;28;20447;-66
2022/03/25 06:31:01;;;;;;;3.10;1.50;;;;;;;20.86;39.04;100491.41;4208527;28;20067;-66
2022/03/25 06:33:04;;;;;;;3.42;1.77;;;;;;;20.87;38.70;100456.91;4197557;28;20044;-65
2022/03/25 06:35:07;;;;;;;2.22;1.48;;;;;;;20.86;39.17;100440.50;4197825;28;20036;-64
2022/03/25 06:37:08;;;;;;;2.50;1.48;;;;;;;20.88;38.92;100446.59;4198341;28;20098;-66
2022/03/25 06:39:09;;;;;;;2.60;1.55;;;;;;;20.86;39.05;100438.56;4198424;28;20097;-66
2022/03/25 06:41:11;;;;;;;3.03;1.05;;;;;;;20.79;38.86;100433.31;4198316;28;20036;-65
2022/03/25 06:43:13;;;;;;;4.60;1.38;;;;;;;20.87;39.09;100444.94;4197948;28;20544;-65
2022/03/25 06:45:16;;;;;;;3.85;1.40;;;;;;;20.88;39.04;100457.72;4198241;28;20041;-66
2022/03/25 06:47:17;;;;;;;3.88;1.60;;;;;;;20.87;38.67;100444.94;4198176;28;20089;-66
2022/03/25 06:49:22;;;;;;;1.95;1.27;;;;;;;20.86;38.78;100440.50;4197678;28;20101;-66
2022/03/25 06:51:23;;;;;;;4.22;1.58;;;;;;;20.88;38.85;100427.13;4196427;28;20436;-65
2022/03/25 06:53:25;;;;;;;2.75;1.40;;;;;;;20.88;38.68;100441.03;4197458;28;20044;-66
2022/03/25 06:55:30;;;;;;;2.75;1.50;;;;;;;20.87;39.11;100433.81;4197311;28;20040;-65
2022/03/25 06:57:32;;;;;;;2.42;1.40;;;;;;;20.88;38.82;100443.81;4179804;28;20091;-66
2022/03/25 06:59:34;;;;;;;3.67;1.23;;;;;;;20.86;38.62;100441.34;4196585;28;20410;-65
2022/03/25 07:01:35;;;;;;;2.75;1.50;;;;;;;20.87;38.59;100434.66;4197869;28;20024;-67
2022/03/25 07:03:37;;;;;;;3.75;1.85;;;;;;;20.86;38.96;100444.13;4197246;28;20546;-68
2022/03/25 07:05:39;;;;;;;1.77;1.20;;;;;;;20.87;38.99;100442.16;4198604;28;20186;-66
2022/03/25 07:07:44;;;;;;;5.43;1.65;;;;;;;20.86;38.40;100446.06;4214213;28;20410;-67
2022/03/25 07:09:46;;;;;;;2.42;1.38;;;;;;;20.86;38.91;100432.16;4214155;28;20097;-67
2022/03/25 07:11:47;;;;;;;2.75;1.42;;;;;;;20.84;38.91;100435.22;4203039;28;20037;-67
2022/03/25 07:13:49;;;;;;;4.13;1.00;;;;;;;20.88;38.83;100463.28;4207547;28;20032;-65
2022/03/25 07:15:50;;;;;;;2.03;1.15;;;;;;;20.87;38.50;100479.16;4203022;28;20119;-66
2022/03/25 07:17:58;;;;;;;4.78;1.20;;;;;;;20.87;38.76;100456.06;4198627;28;20129;-66
2022/03/25 07:20:00;;;;;;;2.78;1.30;;;;;;;20.88;39.03;100454.94;4211285;28;20074;-66
2022/03/25 07:22:02;;;;;;;2.45;1.20;;;;;;;20.88;38.47;100446.59;4212699;28;20036;-66
2022/03/25 07:24:04;;;;;;;2.85;1.27;;;;;;;20.86;38.77;100465.53;4213284;28;20032;-66
2022/03/25 07:26:05;;;;;;;2.17;1.17;;;;;;;20.88;38.58;100454.94;4197918;28;20086;-65
2022/03/25 07:28:07;;;;;;;2.65;1.25;;;;;;;20.86;38.53;100466.38;4196776;28;20049;-65
2022/03/25 07:30:09;;;;;;;3.92;1.17;;;;;;;20.87;38.88;100456.06;4203620;28;20541;-65
2022/03/25 07:32:11;;;;;;;2.78;1.20;;;;;;;20.87;38.87;100456.06;4200290;28;20102;-66
2022/03/25 07:34:12;;;;;;;2.15;1.25;;;;;;;20.84;38.64;100451.09;4197629;28;20029;-66
2022/03/25 07:36:17;;;;;;;2.35;1.25;;;;;;;20.86;38.72;100433.00;4197320;28;20833;-65
2022/03/25 07:38:21;;;;;;;2.00;1.00;;;;;;;20.83;38.44;100416.06;4197967;28;20109;-66
2022/03/25 07:40:22;;;;;;;1.47;0.93;;;;;;;20.87;38.87;100417.97;4197547;28;20484;-66
2022/03/25 07:42:24;;;;;;;5.03;1.25;;;;;;;20.86;38.83;100421.88;4203905;28;20284;-66
2022/03/25 07:44:26;;;;;;;0.98;0.90;;;;;;;20.87;38.72;100431.03;4212914;28;20052;-66
2022/03/25 07:46:30;;;;;;;1.98;1.00;;;;;;;20.86;38.66;100421.03;4205345;28;20450;-66
2022/03/25 07:48:34;;;;;;;3.03;0.80;;;;;;;20.86;38.45;100415.47;4205646;28;20040;-66
2022/03/25 07:50:36;;;;;;;2.78;1.20;;;;;;;20.88;38.59;100416.00;4213123;28;20277;-66
2022/03/25 07:52:37;;;;;;;0.73;0.65;;;;;;;20.86;38.27;100407.13;4212787;28;20097;-65
2022/03/25 07:54:38;;;;;;;1.95;1.05;;;;;;;20.84;38.41;100412.97;4213165;28;20044;-66
2022/03/25 07:56:42;;;;;;;3.22;1.02;;;;;;;20.86;38.36;100415.47;4204852;28;20048;-66
2022/03/25 07:58:43;;;;;;;1.60;0.90;;;;;;;20.87;38.69;100417.13;4196972;28;20087;-65
2022/03/25 08:00:48;;;;;;;2.72;0.90;;;;;;;20.84;38.56;100423.28;4203258;28;20036;-66
2022/03/25 08:02:56;;;;;;;2.25;0.95;;;;;;;20.86;38.45;100443.28;4213605;28;20044;-65
2022/03/25 08:04:57;;;;;;;1.85;0.93;;;;;;;20.86;38.32;100449.69;4203295;28;20135;-66
2022/03/25 08:06:58;;;;;;;1.70;1.02;;;;;;;20.86;38.71;100443.28;4196733;28;20090;-66
2022/03/25 08:09:01;;;;;;;2.33;1.10;;;;;;;20.85;38.59;100469.41;4200840;28;20044;-65
2022/03/25 08:11:03;;;;;;;1.60;1.00;;;;;;;20.85;38.40;100475.84;4197436;28;20102;-65
2022/03/25 08:13:05;;;;;;;2.03;0.90;;;;;;;20.84;38.28;100476.94;4196878;28;20048;-65
2022/03/25 08:15:07;;;;;;;2.25;1.23;;;;;;;20.85;38.31;100486.09;4197105;28;20041;-66
2022/03/25 08:17:09;;;;;;;1.88;0.70;;;;;;;20.86;38.67;100479.44;4196867;28;20447;-66
2022/03/25 08:19:11;;;;;;;1.10;0.75;;;;;;;20.85;38.39;100480.53;4196865;28;20435;-67
2022/03/25 08:21:12;;;;;;;1.10;0.80;;;;;;;20.84;38.56;100484.44;4179048;28;20045;-67
2022/03/25 08:28:01;;;;;;;1.10;0.88;;;;;;;20.85;38.71;100489.75;4185679;28;20083;-67
2022/03/25 08:30:03;;;;;;;1.42;0.88;;;;;;;20.85;38.66;100497.22;4200246;28;20091;-67
2022/03/25 08:32:04;;;;;;;1.90;0.80;;;;;;;20.73;38.43;100475.38;4209487;28;20047;-67
2022/03/25 08:34:08;;;;;;;1.25;0.82;;;;;;;20.85;38.51;100491.66;4199136;28;20106;-67
2022/03/25 08:36:09;;;;;;;1.15;0.80;;;;;;;20.85;38.55;100511.13;4200560;28;20036;-67
2022/03/25 08:38:12;;;;;;;1.10;0.80;;;;;;;20.84;38.52;100510.31;4205626;28;20086;-66
2022/03/25 08:40:13;;;;;;;1.02;0.70;;;;;;;20.85;38.45;100508.34;4205618;28;20033;-67
2022/03/25 08:42:16;;;;;;;0.98;0.80;;;;;;;20.84;38.30;100498.34;4198766;28;20464;-66
2022/03/25 08:44:18;;;;;;;1.70;0.80;;;;;;;20.84;38.53;100507.53;4199086;28;20036;-67
2022/03/25 08:46:25;;;;;;;2.03;1.00;;;;;;;20.84;38.23;100513.09;4199894;28;20045;-67
2022/03/25 08:48:27;;;;;;;1.80;0.80;;;;;;;20.84;38.41;100518.66;4199401;28;20046;-67
2022/03/25 08:50:28;;;;;;;1.17;0.68;;;;;;;20.84;38.52;100509.47;4199673;28;20036;-66
2022/03/25 08:52:30;;;;;;;2.22;0.82;;;;;;;20.84;38.24;100503.91;4198740;28;20557;-67
2022/03/25 08:54:31;;;;;;;0.95;0.60;;;;;;;20.83;38.22;100486.41;4199430;28;20032;-63
2022/03/25 08:56:34;;;;;;;2.70;0.90;;;;;;;20.83;38.29;100491.13;4199124;28;20090;-66
2022/03/25 08:58:35;;;;;;;0.82;0.52;;;;;;;20.84;38.45;100490.00;4199670;28;20062;-67
2022/03/25 09:00:38;;;;;;;1.17;0.75;;;;;;;20.83;38.14;100499.47;4199785;28;20040;-67
2022/03/25 09:02:44;;;;;;;1.02;0.60;;;;;;;20.84;38.53;100501.13;4198950;28;20410;-65
2022/03/25 09:04:46;;;;;;;1.10;0.80;;;;;;;20.83;38.55;100497.53;4199672;28;20032;-65
2022/03/25 09:06:47;;;;;;;1.77;0.80;;;;;;;20.81;38.10;100497.00;4199599;28;20082;-65
2022/03/25 09:08:51;;;;;;;3.28;0.93;;;;;;;20.80;38.26;100486.97;4199518;28;20062;-65
2022/03/25 09:10:53;;;;;;;0.77;0.57;;;;;;;20.81;38.31;100503.41;4199219;28;20040;-65
2022/03/25 09:12:54;;;;;;;2.22;0.70;;;;;;;20.82;38.07;100526.47;4207987;28;20036;-65
2022/03/25 09:14:56;;;;;;;1.77;0.70;;;;;;;20.81;38.07;100538.72;4204245;28;20044;-65
2022/03/25 09:16:57;;;;;;;1.42;0.73;;;;;;;20.81;38.04;100550.66;4198617;28;20434;-65
2022/03/25 09:19:01;;;;;;;1.02;0.80;;;;;;;20.81;38.35;100561.78;4199397;28;20095;-65
2022/03/25 09:21:03;;;;;;;1.02;0.70;;;;;;;20.83;38.16;100571.78;4197550;28;20029;-66
2022/03/25 09:23:04;;;;;;;1.23;0.90;;;;;;;20.83;38.36;100577.34;4198269;28;20044;-65
2022/03/25 09:25:07;;;;;;;1.45;0.73;;;;;;;20.81;38.14;100584.03;4197865;28;20037;-65
2022/03/25 09:27:11;;;;;;;0.93;0.57;;;;;;;20.81;38.41;100589.59;4197419;28;20506;-65
2022/03/25 09:29:13;;;;;;;2.00;1.00;;;;;;;20.81;38.14;100597.94;4181137;28;20040;-66
2022/03/25 09:31:14;;;;;;;1.15;0.68;;;;;;;20.81;38.15;100606.28;4196794;28;20102;-65